createdAt,value
2018-12-09T00:01:58.764Z,4.80
2018-12-09T00:04:27.088Z,4.53
2018-12-09T00:06:57.119Z,3.37
2018-12-09T00:09:25.484Z,3.30
2018-12-09T00:11:53.789Z,3.50
2018-12-09T00:14:22.365Z,3.57
2018-12-09T00:16:50.660Z,3.83
2018-12-09T00:19:19.557Z,4.07
2018-12-09T00:21:47.919Z,4.30
2018-12-09T00:24:16.227Z,3.80
2018-12-09T00:26:44.559Z,4.30
2018-12-09T00:29:13.496Z,5.43
2018-12-09T00:31:41.864Z,6.07
2018-12-09T00:34:10.393Z,6.77
2018-12-09T00:36:38.738Z,7.83
2018-12-09T00:39:07.610Z,7.33
2018-12-09T00:41:36.003Z,7.40
2018-12-09T00:44:04.789Z,7.80
2018-12-09T00:46:33.946Z,6.43
2018-12-09T00:49:02.342Z,6.20
2018-12-09T00:51:30.698Z,4.10
2018-12-09T00:53:58.931Z,3.87
2018-12-09T00:56:27.370Z,2.63
2018-12-09T00:58:55.651Z,2.00
2018-12-09T01:01:24.139Z,1.80
2018-12-09T01:03:52.558Z,2.50
2018-12-09T01:06:20.995Z,2.37
2018-12-09T01:08:48.998Z,2.60
2018-12-09T01:11:17.264Z,3.30
2018-12-09T01:13:45.590Z,2.33
2018-12-09T01:16:14.039Z,2.57
2018-12-09T01:18:42.299Z,2.20
2018-12-09T01:21:10.920Z,2.53
2018-12-09T01:23:39.252Z,2.50
2018-12-09T01:26:07.507Z,3.00
2018-12-09T01:28:35.853Z,2.77
2018-12-09T01:31:04.197Z,3.07
2018-12-09T01:33:32.512Z,2.80
2018-12-09T01:36:00.800Z,3.63
2018-12-09T01:38:29.117Z,3.00
2018-12-09T01:40:57.755Z,3.67
2018-12-09T01:43:26.033Z,3.87
2018-12-09T01:45:54.379Z,3.33
2018-12-09T01:48:22.784Z,4.10
2018-12-09T01:50:51.135Z,4.33
2018-12-09T01:53:30.992Z,4.50
2018-12-09T01:55:59.383Z,4.70
2018-12-09T01:58:27.816Z,5.57
2018-12-09T02:00:56.511Z,5.53
2018-12-09T02:03:24.871Z,4.77
2018-12-09T02:05:53.207Z,5.27
2018-12-09T02:08:21.671Z,5.67
2018-12-09T02:10:50.112Z,5.20
2018-12-09T02:13:18.443Z,4.27
2018-12-09T02:15:46.941Z,4.90
2018-12-09T02:18:15.285Z,4.80
2018-12-09T02:20:43.600Z,4.33
2018-12-09T02:23:12.124Z,4.90
2018-12-09T02:25:40.519Z,5.63
2018-12-09T02:28:08.867Z,4.60
2018-12-09T02:30:37.236Z,4.70
2018-12-09T02:33:05.678Z,5.10
2018-12-09T02:35:41.264Z,4.43
2018-12-09T02:38:09.595Z,3.77
2018-12-09T02:40:37.996Z,5.03
2018-12-09T02:43:06.540Z,4.53
2018-12-09T02:45:34.908Z,4.80
2018-12-09T02:48:04.888Z,4.43
2018-12-09T02:50:33.245Z,5.20
2018-12-09T02:53:01.822Z,5.33
2018-12-09T02:55:30.472Z,6.13
2018-12-09T02:57:58.735Z,6.67
2018-12-09T03:00:27.098Z,7.07
2018-12-09T03:02:55.516Z,6.07
2018-12-09T03:05:34.012Z,6.97
2018-12-09T03:08:02.339Z,5.60
2018-12-09T03:10:30.662Z,6.97
2018-12-09T03:12:58.903Z,6.70
2018-12-09T03:15:27.268Z,6.23
2018-12-09T03:17:55.640Z,4.97
2018-12-09T03:20:24.186Z,5.33
2018-12-09T03:22:52.695Z,6.33
2018-12-09T03:25:21.040Z,6.13
2018-12-09T03:27:49.659Z,5.40
2018-12-09T03:30:18.767Z,4.30
2018-12-09T03:32:47.118Z,5.77
2018-12-09T03:35:15.486Z,5.50
2018-12-09T03:37:43.940Z,4.97
2018-12-09T03:40:12.305Z,6.20
2018-12-09T03:42:40.643Z,5.83
2018-12-09T03:45:09.118Z,5.53
2018-12-09T03:47:37.485Z,4.83
2018-12-09T03:50:06.837Z,5.53
2018-12-09T03:52:35.259Z,5.67
2018-12-09T03:55:03.962Z,6.03
2018-12-09T03:57:32.287Z,7.23
2018-12-09T04:00:00.636Z,5.97
2018-12-09T04:02:29.152Z,6.03
2018-12-09T04:04:57.531Z,6.43
2018-12-09T04:07:25.871Z,5.93
2018-12-09T04:09:54.215Z,5.87
2018-12-09T04:12:22.468Z,7.13
2018-12-09T04:14:51.020Z,6.33
2018-12-09T04:17:25.105Z,5.87
2018-12-09T04:19:53.429Z,6.53
2018-12-09T04:22:21.792Z,5.40
2018-12-09T04:24:50.440Z,6.37
2018-12-09T04:27:18.777Z,6.07
2018-12-09T04:29:47.124Z,9.57
2018-12-09T04:32:15.567Z,6.07
2018-12-09T04:34:43.819Z,7.77
2018-12-09T04:37:12.288Z,7.17
2018-12-09T04:39:40.570Z,7.03
2018-12-09T04:42:09.033Z,8.77
2018-12-09T04:44:37.916Z,7.47
2018-12-09T04:47:06.277Z,7.87
2018-12-09T04:49:34.619Z,7.77
2018-12-09T04:52:03.071Z,7.50
2018-12-09T04:54:31.452Z,8.40
2018-12-09T04:57:00.264Z,7.37
2018-12-09T04:59:31.815Z,8.30
2018-12-09T05:02:00.148Z,7.80
2018-12-09T05:04:28.471Z,10.20
2018-12-09T05:06:57.007Z,10.40
2018-12-09T05:09:25.340Z,9.30
2018-12-09T05:11:53.671Z,9.27
2018-12-09T05:14:22.000Z,8.73
2018-12-09T05:16:50.459Z,9.43
2018-12-09T05:19:18.843Z,8.77
2018-12-09T05:21:47.172Z,6.03
2018-12-09T05:24:15.540Z,6.60
2018-12-09T05:26:44.181Z,6.97
2018-12-09T05:29:12.620Z,7.67
2018-12-09T05:31:40.906Z,6.23
2018-12-09T05:34:09.227Z,7.27
2018-12-09T05:36:37.819Z,6.80
2018-12-09T05:39:06.891Z,6.60
2018-12-09T05:41:35.415Z,6.93
2018-12-09T05:44:03.759Z,4.83
2018-12-09T05:46:32.371Z,4.90
2018-12-09T05:49:00.696Z,4.97
2018-12-09T05:51:29.135Z,3.80
2018-12-09T05:53:57.412Z,4.00
2018-12-09T05:56:25.752Z,3.93
2018-12-09T05:58:54.388Z,4.53
2018-12-09T06:01:22.750Z,4.70
2018-12-09T06:03:51.095Z,4.57
2018-12-09T06:06:19.396Z,4.53
2018-12-09T06:08:47.771Z,4.17
2018-12-09T06:11:16.125Z,4.47
2018-12-09T06:13:44.684Z,4.60
2018-12-09T06:16:13.032Z,3.90
2018-12-09T06:18:41.396Z,4.57
2018-12-09T06:21:09.780Z,4.90
2018-12-09T06:23:38.170Z,3.93
2018-12-09T06:26:06.595Z,4.63
2018-12-09T06:28:35.150Z,5.13
2018-12-09T06:31:03.500Z,5.33
2018-12-09T06:33:32.453Z,4.97
2018-12-09T06:36:00.931Z,5.17
2018-12-09T06:38:29.522Z,6.30
2018-12-09T06:40:57.884Z,5.93
2018-12-09T06:43:26.262Z,5.10
2018-12-09T06:45:54.644Z,4.83
2018-12-09T06:48:23.771Z,5.27
2018-12-09T06:50:52.131Z,5.40
2018-12-09T06:53:20.604Z,4.73
2018-12-09T06:55:49.213Z,5.87
2018-12-09T06:58:17.680Z,5.90
2018-12-09T07:00:46.127Z,4.63
2018-12-09T07:03:14.410Z,5.83
2018-12-09T07:05:42.743Z,5.00
2018-12-09T07:08:11.097Z,6.03
2018-12-09T07:10:39.567Z,5.70
2018-12-09T07:13:07.928Z,6.80
2018-12-09T07:15:36.264Z,5.67
2018-12-09T07:18:04.707Z,5.47
2018-12-09T07:20:33.116Z,5.70
2018-12-09T07:23:01.466Z,4.90
2018-12-09T07:25:29.841Z,4.27
2018-12-09T07:27:58.136Z,4.50
2018-12-09T07:30:26.517Z,5.07
2018-12-09T07:32:54.895Z,4.53
2018-12-09T07:35:24.267Z,5.00
2018-12-09T07:37:52.611Z,4.77
2018-12-09T07:40:20.962Z,6.67
2018-12-09T07:42:49.583Z,5.63
2018-12-09T07:45:17.923Z,5.33
2018-12-09T07:47:46.711Z,5.30
2018-12-09T07:50:15.072Z,6.33
2018-12-09T07:52:43.379Z,6.27
2018-12-09T07:55:11.648Z,7.67
2018-12-09T07:57:40.192Z,6.87
2018-12-09T08:00:09.076Z,6.43
2018-12-09T08:02:37.357Z,6.97
2018-12-09T08:05:06.035Z,6.47
2018-12-09T08:07:34.400Z,6.93
2018-12-09T08:10:02.851Z,7.17
2018-12-09T08:12:31.252Z,7.00
2018-12-09T08:14:59.521Z,7.27
2018-12-09T08:17:27.903Z,8.50
2018-12-09T08:19:56.176Z,8.07
2018-12-09T08:22:24.459Z,8.43
2018-12-09T08:24:59.073Z,7.40
2018-12-09T08:27:27.438Z,7.90
2018-12-09T08:29:55.864Z,7.77
2018-12-09T08:32:24.158Z,7.60
2018-12-09T08:34:52.487Z,9.40
2018-12-09T08:37:20.872Z,9.03
2018-12-09T08:39:49.188Z,8.07
2018-12-09T08:42:17.571Z,8.93
2018-12-09T08:44:47.261Z,5.07
2018-12-09T08:47:15.683Z,2.20
2018-12-09T08:49:43.950Z,1.70
2018-12-09T08:52:12.307Z,1.40
2018-12-09T08:54:40.695Z,1.07
2018-12-09T08:57:08.963Z,0.97
2018-12-09T08:59:37.417Z,1.00
2018-12-09T09:02:05.964Z,1.40
2018-12-09T09:04:34.273Z,1.37
2018-12-09T09:07:02.585Z,1.10
2018-12-09T09:09:30.864Z,1.33
2018-12-09T09:12:00.129Z,1.43
2018-12-09T09:14:28.375Z,1.40
2018-12-09T09:16:56.811Z,1.63
2018-12-09T09:19:25.180Z,1.10
2018-12-09T09:21:53.453Z,1.07
2018-12-09T09:24:21.740Z,1.40
2018-12-09T09:26:51.503Z,1.03
2018-12-09T09:29:20.189Z,1.00
2018-12-09T09:31:48.716Z,1.17
2018-12-09T09:34:17.011Z,1.10
2018-12-09T09:36:45.383Z,0.90
2018-12-09T09:39:13.916Z,1.20
2018-12-09T09:41:42.256Z,0.77
2018-12-09T09:44:10.513Z,1.47
2018-12-09T09:46:38.899Z,0.70
2018-12-09T09:49:07.255Z,0.83
2018-12-09T09:51:35.522Z,1.10
2018-12-09T09:54:04.059Z,0.80
2018-12-09T09:56:32.431Z,0.70
2018-12-09T09:59:00.708Z,0.80
2018-12-09T10:01:29.035Z,1.03
2018-12-09T10:03:57.510Z,0.77
2018-12-09T10:06:26.077Z,0.70
2018-12-09T10:08:55.576Z,0.90
2018-12-09T10:11:23.943Z,0.60
2018-12-09T10:13:52.992Z,1.90
2018-12-09T10:16:21.296Z,0.90
2018-12-09T10:18:49.751Z,0.80
2018-12-09T10:21:18.172Z,1.00
2018-12-09T10:23:46.563Z,0.90
2018-12-09T10:26:14.975Z,1.00
2018-12-09T10:28:43.284Z,0.90
2018-12-09T10:31:11.631Z,0.83
2018-12-09T10:33:39.951Z,1.63
2018-12-09T10:36:08.195Z,1.10
2018-12-09T10:38:36.549Z,1.20
2018-12-09T10:41:04.841Z,1.10
2018-12-09T10:43:36.159Z,0.93
2018-12-09T10:46:06.593Z,1.20
2018-12-09T10:48:34.875Z,1.10
2018-12-09T10:51:03.144Z,1.20
2018-12-09T10:53:31.451Z,1.40
2018-12-09T10:55:59.721Z,1.20
2018-12-09T10:58:28.251Z,1.40
2018-12-09T11:01:02.155Z,1.47
2018-12-09T11:03:31.316Z,1.27
2018-12-09T11:05:59.601Z,1.70
2018-12-09T11:08:28.456Z,2.13
2018-12-09T11:10:56.801Z,2.43
2018-12-09T11:13:25.156Z,2.07
2018-12-09T11:15:53.443Z,2.57
2018-12-09T11:18:22.234Z,2.30
2018-12-09T11:20:50.636Z,1.87
2018-12-09T11:23:18.958Z,1.80
2018-12-09T11:25:47.300Z,2.37
2018-12-09T11:28:15.612Z,2.13
2018-12-09T11:30:43.991Z,2.50
2018-12-09T11:33:12.365Z,2.73
2018-12-09T11:35:40.658Z,1.80
2018-12-09T11:38:09.514Z,2.10
2018-12-09T11:40:38.435Z,2.10
2018-12-09T11:43:06.829Z,1.83
2018-12-09T11:45:35.199Z,2.77
2018-12-09T11:48:03.617Z,2.53
2018-12-09T11:50:40.270Z,2.57
2018-12-09T11:53:08.569Z,1.87
2018-12-09T11:55:36.893Z,2.10
2018-12-09T11:58:05.610Z,2.70
2018-12-09T12:00:34.002Z,2.47
2018-12-09T12:03:02.391Z,2.17
2018-12-09T12:05:30.720Z,2.17
2018-12-09T12:07:59.138Z,2.13
2018-12-09T12:10:29.051Z,1.93
2018-12-09T12:12:58.439Z,2.77
2018-12-09T12:15:26.960Z,2.20
2018-12-09T12:17:55.339Z,2.07
2018-12-09T12:20:23.997Z,2.67
2018-12-09T12:22:52.499Z,2.37
2018-12-09T12:25:20.941Z,2.23
2018-12-09T12:27:49.296Z,2.50
2018-12-09T12:30:17.867Z,2.30
2018-12-09T12:32:46.240Z,2.23
2018-12-09T12:35:14.609Z,2.53
2018-12-09T12:37:43.052Z,2.43
2018-12-09T12:40:12.632Z,3.43
2018-12-09T12:42:40.924Z,3.40
2018-12-09T12:45:09.370Z,3.77
2018-12-09T12:47:37.823Z,4.23
2018-12-09T12:50:06.380Z,4.43
2018-12-09T12:52:34.945Z,5.40
2018-12-09T12:55:03.364Z,4.00
2018-12-09T12:57:31.686Z,3.70
2018-12-09T13:00:07.752Z,3.80
2018-12-09T13:02:36.069Z,3.60
2018-12-09T13:05:04.901Z,3.63
2018-12-09T13:07:33.260Z,4.13
2018-12-09T13:10:09.007Z,4.47
2018-12-09T13:12:37.639Z,4.63
2018-12-09T13:15:09.196Z,4.53
2018-12-09T13:17:37.464Z,4.00
2018-12-09T13:20:07.211Z,3.47
2018-12-09T13:22:35.536Z,3.63
2018-12-09T13:25:04.446Z,3.87
2018-12-09T13:27:32.811Z,4.03
2018-12-09T13:30:01.535Z,4.43
2018-12-09T13:32:29.864Z,3.60
2018-12-09T13:34:58.335Z,3.67
2018-12-09T13:37:26.793Z,4.00
2018-12-09T13:39:55.091Z,4.17
2018-12-09T13:42:23.403Z,3.87
2018-12-09T13:45:04.565Z,4.87
2018-12-09T13:47:33.420Z,4.40
2018-12-09T13:50:01.740Z,4.27
2018-12-09T13:52:30.239Z,5.30
2018-12-09T13:54:58.746Z,4.00
2018-12-09T13:57:27.072Z,4.07
2018-12-09T13:59:55.535Z,3.10
2018-12-09T14:02:23.816Z,3.10
2018-12-09T14:04:53.568Z,2.70
2018-12-09T14:07:22.036Z,3.77
2018-12-09T14:09:50.275Z,2.87
2018-12-09T14:12:18.649Z,3.10
2018-12-09T14:14:47.326Z,3.37
2018-12-09T14:17:15.901Z,2.30
2018-12-09T14:19:44.256Z,3.00
2018-12-09T14:22:12.651Z,3.17
2018-12-09T14:24:41.012Z,2.73
2018-12-09T14:27:10.059Z,3.07
2018-12-09T14:29:38.342Z,3.20
2018-12-09T14:32:06.729Z,2.83
2018-12-09T14:34:35.107Z,2.93
2018-12-09T14:37:03.581Z,2.50
2018-12-09T14:39:31.861Z,2.67
2018-12-09T14:42:00.228Z,2.63
2018-12-09T14:44:29.423Z,2.30
2018-12-09T14:46:57.989Z,2.80
2018-12-09T14:49:26.240Z,2.50
2018-12-09T14:51:54.588Z,2.77
2018-12-09T14:54:22.873Z,2.30
2018-12-09T14:56:51.150Z,2.43
2018-12-09T14:59:19.507Z,3.10
2018-12-09T15:01:47.796Z,3.10
2018-12-09T15:04:16.076Z,2.83
2018-12-09T15:06:44.341Z,3.03
2018-12-09T15:09:12.603Z,3.37
2018-12-09T15:11:40.969Z,2.50
2018-12-09T15:14:09.342Z,2.97
2018-12-09T15:16:37.611Z,2.87
2018-12-09T15:19:06.007Z,2.27
2018-12-09T15:21:35.974Z,2.67
2018-12-09T15:24:05.172Z,2.47
2018-12-09T15:26:33.486Z,3.20
2018-12-09T15:29:01.777Z,2.50
2018-12-09T15:31:31.148Z,2.43
2018-12-09T15:33:59.411Z,2.10
2018-12-09T15:36:28.952Z,2.13
2018-12-09T15:38:57.304Z,2.30
2018-12-09T15:41:25.593Z,2.40
2018-12-09T15:43:53.976Z,2.43
2018-12-09T15:46:22.297Z,2.95
2018-12-09T15:48:50.733Z,3.13
2018-12-09T15:51:19.193Z,2.43
2018-12-09T15:53:47.495Z,2.07
2018-12-09T15:56:15.966Z,2.83
2018-12-09T15:58:44.241Z,2.83
2018-12-09T16:01:12.639Z,1.87
2018-12-09T16:03:41.069Z,2.37
2018-12-09T16:06:09.397Z,2.33
2018-12-09T16:08:39.854Z,2.97
2018-12-09T16:11:08.284Z,3.17
2018-12-09T16:13:37.462Z,2.63
2018-12-09T16:16:05.756Z,2.73
2018-12-09T16:18:34.049Z,2.30
2018-12-09T16:21:02.592Z,2.73
2018-12-09T16:23:31.122Z,2.50
2018-12-09T16:25:59.680Z,2.60
2018-12-09T16:28:29.188Z,2.93
2018-12-09T16:30:57.482Z,2.60
2018-12-09T16:33:25.885Z,3.03
2018-12-09T16:35:54.519Z,2.23
2018-12-09T16:38:23.040Z,2.87
2018-12-09T16:40:51.425Z,2.60
2018-12-09T16:43:19.958Z,2.30
2018-12-09T16:45:48.367Z,2.40
2018-12-09T16:48:17.005Z,1.93
2018-12-09T16:50:45.306Z,2.90
2018-12-09T16:53:17.319Z,2.53
2018-12-09T16:55:46.945Z,2.77
2018-12-09T16:58:15.342Z,2.77
2018-12-09T17:00:43.750Z,2.60
2018-12-09T17:03:17.719Z,2.60
2018-12-09T17:05:52.283Z,3.10
2018-12-09T17:08:20.630Z,2.27
2018-12-09T17:10:49.342Z,2.30
2018-12-09T17:16:19.519Z,2.03
2018-12-09T17:18:49.592Z,2.73
2018-12-09T17:21:19.964Z,3.07
2018-12-09T17:23:49.454Z,2.40
2018-12-09T17:26:18.088Z,2.77
2018-12-09T17:28:47.828Z,3.20
2018-12-09T17:31:18.632Z,3.07
2018-12-09T17:33:49.242Z,2.77
2018-12-09T17:36:23.296Z,2.33
2018-12-09T17:38:51.747Z,2.87
2018-12-09T17:41:25.047Z,2.87
2018-12-09T17:43:50.960Z,3.07
2018-12-09T17:46:22.108Z,3.20
2018-12-09T17:48:50.723Z,2.70
2018-12-09T17:51:19.127Z,3.73
2018-12-09T17:53:47.579Z,3.33
2018-12-09T17:56:26.206Z,2.87
2018-12-09T17:58:55.361Z,3.13
2018-12-09T18:01:36.615Z,4.47
2018-12-09T18:04:05.844Z,3.33
2018-12-09T18:06:34.885Z,3.03
2018-12-09T18:09:05.077Z,3.00
2018-12-09T18:11:34.080Z,2.63
2018-12-09T18:14:08.003Z,3.80
2018-12-09T18:16:36.609Z,3.17
2018-12-09T18:19:05.598Z,3.80
2018-12-09T18:21:34.542Z,2.93
2018-12-09T18:24:02.908Z,2.83
2018-12-09T18:26:31.912Z,3.10
2018-12-09T18:29:04.432Z,2.63
2018-12-09T18:31:33.171Z,3.70
2018-12-09T18:34:01.671Z,4.73
2018-12-09T18:36:32.294Z,3.13
2018-12-09T18:39:06.378Z,4.13
2018-12-09T18:41:47.442Z,3.83
2018-12-09T18:44:16.026Z,4.00
2018-12-09T18:46:45.745Z,3.80
2018-12-09T18:49:16.712Z,4.53
2018-12-09T18:51:45.061Z,3.70
2018-12-09T18:54:17.865Z,3.80
2018-12-09T18:56:46.214Z,3.47
2018-12-09T18:59:14.548Z,3.87
2018-12-09T19:01:42.916Z,4.57
2018-12-09T19:07:04.269Z,4.33
2018-12-09T19:14:54.251Z,4.53
2018-12-09T19:17:33.855Z,3.43
2018-12-09T19:20:08.427Z,4.10
2018-12-09T19:22:51.475Z,3.80
2018-12-09T19:25:38.591Z,3.70
2018-12-09T19:28:06.964Z,4.87
2018-12-09T19:30:35.369Z,3.77
2018-12-09T19:33:07.221Z,4.63
2018-12-09T19:35:35.521Z,5.27
2018-12-09T19:38:03.719Z,4.40
2018-12-09T19:40:32.060Z,4.10
2018-12-09T19:43:00.326Z,3.37
2018-12-09T19:51:46.597Z,4.20
2018-12-09T19:54:40.402Z,5.00
2018-12-09T19:57:09.928Z,4.30
2018-12-09T19:59:38.671Z,3.37
2018-12-09T20:02:07.046Z,3.70
2018-12-09T20:04:35.678Z,3.77
2018-12-09T20:07:04.166Z,3.83
2018-12-09T20:09:32.600Z,4.80
2018-12-09T20:12:01.854Z,4.67
2018-12-09T20:14:30.251Z,5.47
2018-12-09T20:16:58.549Z,3.63
2018-12-09T20:19:27.028Z,4.37
2018-12-09T20:21:55.534Z,5.47
2018-12-09T20:24:23.852Z,3.77
2018-12-09T20:26:52.319Z,4.43
2018-12-09T20:29:20.789Z,4.17
2018-12-09T20:32:01.206Z,5.53
2018-12-09T20:34:29.715Z,4.13
2018-12-09T20:37:05.755Z,6.73
2018-12-09T20:39:34.113Z,4.13
2018-12-09T20:42:02.907Z,4.20
2018-12-09T20:47:40.359Z,5.00
2018-12-09T20:50:27.165Z,5.23
2018-12-09T20:55:59.624Z,4.67
2018-12-09T21:01:39.062Z,4.77
2018-12-09T21:04:07.271Z,5.67
2018-12-09T21:06:35.488Z,5.03
2018-12-09T21:09:15.831Z,4.23
2018-12-09T21:11:45.179Z,3.93
2018-12-09T21:14:13.496Z,4.50
2018-12-09T21:16:43.079Z,4.07
2018-12-09T21:19:11.331Z,4.50
2018-12-09T21:21:39.773Z,4.70
2018-12-09T21:24:08.036Z,5.63
2018-12-09T21:26:38.578Z,5.23
2018-12-09T21:29:06.848Z,4.03
2018-12-09T21:31:35.251Z,6.07
2018-12-09T21:34:03.614Z,5.30
2018-12-09T21:36:32.611Z,5.60
2018-12-09T21:39:00.953Z,5.00
2018-12-09T21:41:29.209Z,6.43
2018-12-09T21:43:57.600Z,4.60
2018-12-09T21:46:26.040Z,4.50
2018-12-09T21:48:54.368Z,4.50
2018-12-09T21:51:22.677Z,4.87
2018-12-09T21:53:50.991Z,4.57
2018-12-09T21:56:19.317Z,4.43
2018-12-09T21:58:47.575Z,4.50
2018-12-09T22:01:15.895Z,4.07
2018-12-09T22:03:44.230Z,3.90
2018-12-09T22:06:12.516Z,4.47
2018-12-09T22:08:44.598Z,4.53
2018-12-09T22:11:35.272Z,4.33
2018-12-09T22:14:03.818Z,5.30
2018-12-09T22:16:32.286Z,4.57
2018-12-09T22:19:00.921Z,4.70
2018-12-09T22:21:29.293Z,5.37
2018-12-09T22:24:01.885Z,4.33
2018-12-09T22:26:30.254Z,5.77
2018-12-09T22:28:58.638Z,5.70
2018-12-09T22:31:26.907Z,4.60
2018-12-09T22:33:55.433Z,4.03
2018-12-09T22:36:23.914Z,4.47
2018-12-09T22:38:52.231Z,5.37
2018-12-09T22:41:20.567Z,4.40
2018-12-09T22:43:49.029Z,4.93
2018-12-09T22:46:17.292Z,3.93
2018-12-09T22:48:45.736Z,4.70
2018-12-09T22:51:17.374Z,3.67
2018-12-09T22:53:45.655Z,4.80
2018-12-09T22:56:13.929Z,4.87
2018-12-09T22:58:49.749Z,4.23
2018-12-09T23:01:19.804Z,4.07
2018-12-09T23:03:48.191Z,3.97
2018-12-09T23:06:16.704Z,4.63
2018-12-09T23:08:44.969Z,4.03
2018-12-09T23:11:13.258Z,5.20
2018-12-09T23:13:41.528Z,4.67
2018-12-09T23:16:09.881Z,4.40
2018-12-09T23:18:38.168Z,4.00
2018-12-09T23:21:06.532Z,3.83
2018-12-09T23:23:45.158Z,4.23
2018-12-09T23:26:13.532Z,4.33
2018-12-09T23:28:41.909Z,4.00
2018-12-09T23:31:10.203Z,3.73
2018-12-09T23:33:38.600Z,3.53
2018-12-09T23:36:07.088Z,3.80
2018-12-09T23:38:35.440Z,3.07
2018-12-09T23:41:03.879Z,3.60
2018-12-09T23:43:32.224Z,3.93
2018-12-09T23:46:00.515Z,3.40
2018-12-09T23:48:29.271Z,4.53
2018-12-09T23:50:57.540Z,4.20
2018-12-09T23:53:26.005Z,4.00
2018-12-09T23:55:54.288Z,3.20
2018-12-09T23:58:22.576Z,3.77
